Time;durP1;ratioP1;P1;durP2;ratioP2;P2;SDS_P1;SDS_P2;PMS_P1;PMS_P2;Temp;Humidity;BMP_temperature;BMP_pressure;BME280_temperature;BME280_humidity;BME280_pressure;Samples;Min_cycle;Max_cycle;Signal;HPM_P1;HPM_P2
2022/04/24 00:01:48;;;;;;;20.80;8.60;;;;;;;3.30;99.61;99195.35;104877;1274;59804;-66
2022/04/24 00:04:36;;;;;;;20.30;8.10;;;;;;;3.29;99.79;99187.11;104986;1273;61319;-65
2022/04/24 00:07:25;;;;;;;18.20;8.00;;;;;;;3.29;99.99;99188.55;104920;1274;72610;-66
2022/04/24 00:10:13;;;;;;;16.90;7.50;;;;;;;3.31;99.95;99183.70;104884;1272;69633;-65
2022/04/24 00:13:03;;;;;;;16.50;7.10;;;;;;;3.30;99.94;99186.58;104811;1274;74174;-68
2022/04/24 00:15:51;;;;;;;18.50;8.10;;;;;;;3.26;100.00;99185.90;104746;1274;59717;-68
2022/04/24 00:18:39;;;;;;;18.90;7.20;;;;;;;3.25;100.00;99190.16;104853;1274;60515;-66
2022/04/24 00:21:27;;;;;;;18.80;7.50;;;;;;;3.24;100.00;99185.66;104736;1273;73880;-65
2022/04/24 00:24:15;;;;;;;17.20;7.30;;;;;;;3.22;100.00;99186.29;104783;1273;69587;-66
2022/04/24 00:27:03;;;;;;;18.00;7.40;;;;;;;3.22;100.00;99182.64;104778;1273;73414;-65
2022/04/24 00:29:51;;;;;;;15.40;6.70;;;;;;;3.23;100.00;99183.48;104809;1273;59682;-65
2022/04/24 00:32:39;;;;;;;17.90;7.40;;;;;;;3.24;100.00;99186.22;104900;1274;60246;-66
2022/04/24 00:35:28;;;;;;;15.20;6.50;;;;;;;3.23;100.00;99184.16;104861;1273;73364;-65
2022/04/24 00:38:16;;;;;;;16.10;7.00;;;;;;;3.22;100.00;99175.06;104982;1274;67494;-64
2022/04/24 00:41:04;;;;;;;17.60;6.50;;;;;;;3.24;100.00;99174.29;104941;1274;73716;-65
2022/04/24 00:43:54;;;;;;;17.50;7.40;;;;;;;3.24;100.00;99174.14;104898;1272;59615;-68
2022/04/24 00:47:12;;;;;;;20.80;7.30;;;;;;;3.23;100.00;99171.85;104756;1274;62082;-66
2022/04/24 00:50:00;;;;;;;16.70;6.90;;;;;;;3.25;100.00;99174.18;104878;1274;72494;-67
2022/04/24 00:52:49;;;;;;;15.40;6.10;;;;;;;3.28;100.00;99175.46;104957;1274;67951;-67
2022/04/24 00:55:38;;;;;;;19.40;8.10;;;;;;;3.29;100.00;99180.61;105310;1274;72095;-64
2022/04/24 00:58:26;;;;;;;18.20;7.90;;;;;;;3.33;100.00;99174.97;104761;1274;59781;-64
2022/04/24 01:01:14;;;;;;;16.70;7.40;;;;;;;3.36;100.00;99178.77;104875;1274;59734;-64
2022/04/24 01:04:06;;;;;;;18.80;8.20;;;;;;;3.38;100.00;99178.66;104780;1273;72797;-64
2022/04/24 01:06:53;;;;;;;15.50;6.70;;;;;;;3.40;100.00;99178.36;104794;1273;67258;-63
2022/04/24 01:09:42;;;;;;;16.50;6.90;;;;;;;3.41;99.88;99182.38;105014;1274;72494;-65
2022/04/24 01:12:30;;;;;;;17.00;7.10;;;;;;;3.42;99.94;99180.72;105119;1274;59665;-66
2022/04/24 01:15:18;;;;;;;18.00;7.70;;;;;;;3.42;99.83;99182.13;104749;1273;59564;-65
2022/04/24 01:18:06;;;;;;;17.60;7.70;;;;;;;3.45;99.91;99182.64;104764;1274;72596;-66
2022/04/24 01:20:54;;;;;;;17.70;7.60;;;;;;;3.49;99.92;99184.30;104911;1273;68135;-66
2022/04/24 01:23:43;;;;;;;17.00;7.40;;;;;;;3.53;99.80;99184.44;105024;1273;74242;-68
2022/04/24 01:26:32;;;;;;;18.30;7.70;;;;;;;3.57;99.43;99185.20;104897;1274;59692;-68
2022/04/24 01:29:24;;;;;;;17.00;7.10;;;;;;;3.62;99.35;99185.42;105124;1274;60475;-66
2022/04/24 01:32:12;;;;;;;16.80;7.60;;;;;;;3.65;99.07;99184.73;104991;1274;73352;-68
2022/04/24 01:35:02;;;;;;;17.10;7.70;;;;;;;3.71;99.26;99184.52;104866;1272;66984;-67
2022/04/24 01:37:50;;;;;;;16.80;7.60;;;;;;;3.78;98.76;99193.89;105053;1273;74079;-68
2022/04/24 01:40:38;;;;;;;16.40;7.30;;;;;;;3.84;98.65;99194.55;104935;1274;59771;-69
2022/04/24 01:43:26;;;;;;;17.00;6.60;;;;;;;3.91;98.09;99197.48;104963;1274;59705;-66
2022/04/24 01:46:14;;;;;;;18.60;6.40;;;;;;;3.96;97.80;99187.36;104883;1274;73105;-67
2022/04/24 01:49:03;;;;;;;15.20;6.00;;;;;;;4.01;97.68;99185.79;104823;1274;66861;-66
2022/04/24 01:51:51;;;;;;;14.30;6.90;;;;;;;4.03;97.05;99184.95;104795;1274;74158;-63
2022/04/24 01:54:39;;;;;;;15.80;6.30;;;;;;;4.01;96.54;99178.24;104875;1274;59572;-64
2022/04/24 01:57:27;;;;;;;13.10;6.10;;;;;;;4.02;96.66;99175.19;105015;1273;60529;-65
2022/04/24 02:00:15;;;;;;;15.90;7.10;;;;;;;4.05;96.52;99168.31;104928;1273;73232;-63
2022/04/24 02:03:03;;;;;;;16.00;6.40;;;;;;;4.09;96.49;99170.34;104746;1273;68841;-63
2022/04/24 02:05:53;;;;;;;15.70;6.40;;;;;;;4.07;95.91;99170.09;104745;1273;73230;-61
2022/04/24 02:08:40;;;;;;;14.70;6.70;;;;;;;4.05;95.69;99166.23;104769;1273;59673;-62
2022/04/24 02:11:29;;;;;;;17.30;6.60;;;;;;;4.04;95.91;99163.63;104944;1273;61918;-62
2022/04/24 02:14:17;;;;;;;15.60;7.50;;;;;;;4.03;95.98;99165.98;104753;1273;74741;-62
2022/04/24 02:17:05;;;;;;;13.80;6.60;;;;;;;4.04;96.26;99164.15;104755;1273;66973;-65
2022/04/24 02:19:53;;;;;;;14.70;5.80;;;;;;;4.05;96.07;99159.35;104761;1273;73038;-61
2022/04/24 02:22:41;;;;;;;13.80;5.70;;;;;;;4.05;96.39;99156.33;104764;1274;59806;-65
2022/04/24 02:25:30;;;;;;;15.00;6.70;;;;;;;4.02;96.19;99147.98;105047;1273;59548;-66
2022/04/24 02:28:18;;;;;;;16.60;6.90;;;;;;;3.99;96.50;99147.85;104931;1273;72789;-67
2022/04/24 02:31:05;;;;;;;13.90;6.30;;;;;;;3.97;96.61;99146.70;104671;1275;69350;-65
2022/04/24 02:33:54;;;;;;;15.20;6.50;;;;;;;3.98;96.73;99143.35;104798;1273;73236;-65
2022/04/24 02:36:41;;;;;;;15.50;6.50;;;;;;;3.97;96.94;99146.55;104911;1273;59804;-66
2022/04/24 02:39:29;;;;;;;15.60;6.80;;;;;;;3.98;96.61;99144.21;104729;1273;60673;-64
2022/04/24 02:42:17;;;;;;;15.60;7.10;;;;;;;3.99;96.79;99140.23;104871;1273;74310;-62
2022/04/24 02:45:09;;;;;;;16.30;7.30;;;;;;;4.01;96.66;99138.73;104708;1273;67519;-63
2022/04/24 02:47:57;;;;;;;16.20;7.50;;;;;;;4.02;96.93;99134.95;104760;1273;72474;-63
2022/04/24 02:50:45;;;;;;;18.10;8.00;;;;;;;4.06;96.97;99132.11;104781;1273;60912;-61
2022/04/24 02:53:33;;;;;;;15.90;7.90;;;;;;;4.12;96.74;99129.45;104959;1273;59575;-64
2022/04/24 02:56:20;;;;;;;18.50;7.60;;;;;;;4.12;96.46;99127.29;104783;1274;73873;-63
2022/04/24 02:59:09;;;;;;;15.40;6.80;;;;;;;4.14;96.58;99126.83;104995;1274;69677;-63
2022/04/24 03:01:59;;;;;;;15.80;7.00;;;;;;;4.17;96.49;99120.68;104981;1274;74370;-64
2022/04/24 03:04:47;;;;;;;15.90;7.20;;;;;;;4.14;96.35;99118.06;104821;1274;59731;-63
2022/04/24 03:07:35;;;;;;;15.60;7.10;;;;;;;4.12;96.18;99115.23;104831;1274;59793;-64
2022/04/24 03:10:23;;;;;;;18.30;7.30;;;;;;;4.12;96.26;99108.20;104842;1274;74784;-63
2022/04/24 03:13:12;;;;;;;16.60;6.50;;;;;;;4.11;96.40;99108.09;104900;1274;68678;-62
2022/04/24 03:15:59;;;;;;;13.90;6.90;;;;;;;4.09;96.35;99105.41;105070;1274;72744;-63
2022/04/24 03:18:47;;;;;;;15.50;7.20;;;;;;;4.11;96.34;99103.01;104757;1274;59675;-63
2022/04/24 03:21:35;;;;;;;16.50;7.00;;;;;;;4.11;96.43;99102.27;104901;1274;61840;-61
2022/04/24 03:24:23;;;;;;;14.70;6.70;;;;;;;4.11;96.42;99097.55;104943;1274;73996;-64
2022/04/24 03:27:12;;;;;;;16.10;6.40;;;;;;;4.12;96.44;99093.61;104884;1274;69691;-65
2022/04/24 03:30:00;;;;;;;13.70;6.20;;;;;;;4.12;96.63;99093.28;104819;1274;72320;-64
2022/04/24 03:32:48;;;;;;;14.30;6.70;;;;;;;4.11;96.47;99092.62;105366;1274;59688;-66
2022/04/24 03:35:37;;;;;;;17.10;6.60;;;;;;;4.12;96.26;99091.86;105041;1274;60281;-63
2022/04/24 03:38:25;;;;;;;12.80;6.40;;;;;;;4.11;96.35;99092.10;104760;1274;73954;-64
2022/04/24 03:41:13;;;;;;;14.50;6.50;;;;;;;4.11;96.33;99087.69;105099;1274;69590;-63
2022/04/24 03:44:01;;;;;;;16.50;6.90;;;;;;;4.12;96.31;99089.55;105078;1274;73736;-64
2022/04/24 03:46:49;;;;;;;13.10;5.60;;;;;;;4.13;96.25;99087.07;104875;1274;59768;-65
2022/04/24 03:49:37;;;;;;;15.40;6.60;;;;;;;4.16;96.34;99086.14;104714;1274;61383;-66
2022/04/24 03:52:25;;;;;;;13.50;6.10;;;;;;;4.19;96.22;99080.36;104713;1274;73785;-67
2022/04/24 03:55:14;;;;;;;13.10;6.00;;;;;;;4.21;96.08;99084.02;104908;1274;69406;-63
2022/04/24 03:58:01;;;;;;;13.80;6.00;;;;;;;4.26;95.98;99083.38;105095;1274;72681;-65
2022/04/24 04:00:49;;;;;;;15.60;6.00;;;;;;;4.30;95.80;99079.94;104897;1274;59767;-65
2022/04/24 04:03:37;;;;;;;13.00;5.60;;;;;;;4.34;95.54;99078.42;104984;1274;61472;-65
2022/04/24 04:06:25;;;;;;;11.60;5.20;;;;;;;4.37;95.42;99079.10;104905;1274;73506;-63
2022/04/24 04:09:14;;;;;;;12.90;5.90;;;;;;;4.41;95.18;99076.41;104946;1274;67470;-66
2022/04/24 04:12:02;;;;;;;12.70;5.90;;;;;;;4.45;95.11;99079.96;104779;1274;73462;-64
2022/04/24 04:14:49;;;;;;;15.10;6.20;;;;;;;4.49;94.84;99080.05;104704;1274;59780;-68
2022/04/24 04:17:37;;;;;;;14.80;6.60;;;;;;;4.56;94.73;99079.61;104733;1274;60457;-65
2022/04/24 04:20:26;;;;;;;11.80;5.80;;;;;;;4.63;94.67;99075.59;104800;1274;73009;-64
2022/04/24 04:23:14;;;;;;;15.20;6.00;;;;;;;4.70;94.34;99072.67;104743;1274;68727;-64
2022/04/24 04:26:03;;;;;;;14.20;6.10;;;;;;;4.79;94.03;99070.48;104740;1273;71944;-65
2022/04/24 04:28:51;;;;;;;12.80;5.90;;;;;;;4.89;93.86;99073.29;104999;1274;61358;-65
2022/04/24 04:31:38;;;;;;;12.50;5.70;;;;;;;4.99;93.25;99074.16;104820;1274;60410;-65
2022/04/24 04:34:27;;;;;;;13.80;5.50;;;;;;;5.10;92.84;99078.51;104798;1274;73861;-67
2022/04/24 04:37:15;;;;;;;12.60;5.40;;;;;;;5.23;92.82;99081.24;104721;1275;69547;-68
2022/04/24 04:40:04;;;;;;;13.30;5.90;;;;;;;5.37;91.75;99078.73;104750;1274;73360;-66
2022/04/24 04:42:52;;;;;;;12.10;6.00;;;;;;;5.49;91.20;99077.83;104614;1274;59665;-68
2022/04/24 04:45:39;;;;;;;12.90;5.60;;;;;;;5.59;90.82;99086.07;104796;1274;62118;-68
2022/04/24 04:48:28;;;;;;;14.40;5.90;;;;;;;5.71;90.07;99093.67;104796;1274;73247;-67
2022/04/24 04:51:16;;;;;;;11.90;5.60;;;;;;;5.86;89.65;99095.38;104828;1274;68663;-65
2022/04/24 04:54:04;;;;;;;12.60;5.60;;;;;;;5.98;88.90;99088.77;104740;1274;73832;-66
2022/04/24 04:56:52;;;;;;;11.80;5.10;;;;;;;6.15;88.31;99092.23;105066;1273;59662;-67
2022/04/24 04:59:40;;;;;;;10.90;5.50;;;;;;;6.29;87.62;99090.48;104685;1274;60393;-66
2022/04/24 05:02:28;;;;;;;13.20;5.70;;;;;;;6.40;86.82;99087.33;105013;1273;74024;-65
2022/04/24 05:05:17;;;;;;;12.70;5.40;;;;;;;6.46;86.33;99089.90;105072;1274;68702;-67
2022/04/24 05:08:05;;;;;;;13.50;5.50;;;;;;;6.48;85.41;99089.57;104862;1274;72315;-69
2022/04/24 05:10:53;;;;;;;13.20;5.50;;;;;;;6.52;85.28;99094.74;104762;1274;59681;-66
2022/04/24 05:13:41;;;;;;;13.80;5.60;;;;;;;6.51;84.90;99093.92;104810;1274;59522;-65
2022/04/24 05:16:29;;;;;;;15.30;6.00;;;;;;;6.48;84.87;99094.71;104832;1275;73057;-65
2022/04/24 05:19:19;;;;;;;13.90;6.60;;;;;;;6.45;84.81;99096.86;104750;1274;67494;-63
2022/04/24 05:22:08;;;;;;;14.60;5.70;;;;;;;6.44;84.73;99094.81;104717;1274;72572;-64
2022/04/24 05:24:56;;;;;;;13.60;6.10;;;;;;;6.49;84.79;99095.48;104892;1274;59770;-67
2022/04/24 05:27:44;;;;;;;21.40;11.50;;;;;;;6.61;84.55;99091.90;104731;1274;61581;-68
2022/04/24 05:30:33;;;;;;;13.30;5.90;;;;;;;6.72;84.04;99099.41;104706;1274;70966;-65
2022/04/24 05:33:21;;;;;;;13.70;6.60;;;;;;;6.77;83.44;99101.85;105257;1274;69200;-68
2022/04/24 05:36:09;;;;;;;15.00;6.70;;;;;;;6.89;83.17;99105.15;104937;1272;71464;-68
2022/04/24 05:38:56;;;;;;;15.10;6.80;;;;;;;6.87;82.90;99106.34;104973;1274;59790;-67
2022/04/24 05:41:44;;;;;;;15.10;6.10;;;;;;;7.57;81.78;99100.33;104978;1274;59612;-70
2022/04/24 05:44:32;;;;;;;14.90;6.60;;;;;;;9.36;76.20;99093.06;105240;1274;74038;-69
2022/04/24 05:47:20;;;;;;;14.40;6.00;;;;;;;11.07;70.27;99090.85;104876;1274;68574;-67
2022/04/24 05:50:08;;;;;;;11.50;5.70;;;;;;;12.58;63.26;99088.77;105080;1272;73829;-67
2022/04/24 05:52:57;;;;;;;13.40;6.10;;;;;;;13.88;59.44;99080.48;104729;1274;59688;-71
2022/04/24 05:55:45;;;;;;;11.50;5.30;;;;;;;15.14;55.30;99071.16;105014;1272;61506;-66
2022/04/24 05:58:32;;;;;;;10.70;4.60;;;;;;;16.20;51.23;99070.64;104741;1274;73841;-66
2022/04/24 06:01:21;;;;;;;13.80;4.90;;;;;;;16.83;49.00;99071.79;104771;1274;68120;-66
2022/04/24 06:04:09;;;;;;;10.60;5.20;;;;;;;17.03;47.96;99074.09;104811;1274;74570;-70
2022/04/24 06:06:57;;;;;;;10.80;4.50;;;;;;;16.31;48.11;99074.38;105014;1274;59827;-67
2022/04/24 06:09:45;;;;;;;12.10;4.90;;;;;;;15.44;49.77;99080.91;104837;1274;60554;-67
2022/04/24 06:12:55;;;;;;;10.50;4.60;;;;;;;14.70;50.82;99086.85;104664;1274;74962;-65
2022/04/24 06:15:42;;;;;;;11.70;4.80;;;;;;;13.77;52.14;99084.82;104813;1275;69390;-66
2022/04/24 06:18:31;;;;;;;11.70;5.00;;;;;;;13.74;53.58;99085.72;104851;1274;71828;-63
2022/04/24 06:21:19;;;;;;;11.20;5.00;;;;;;;14.80;52.47;99091.80;104693;1274;59570;-63
2022/04/24 06:24:07;;;;;;;10.20;4.90;;;;;;;16.49;49.22;99086.14;105195;1274;61036;-64
2022/04/24 06:26:55;;;;;;;13.30;6.00;;;;;;;18.15;45.63;99083.30;104705;1274;72872;-68
2022/04/24 06:29:46;;;;;;;11.00;5.60;;;;;;;19.68;41.99;99079.44;104965;1274;69893;-68
2022/04/24 06:32:41;;;;;;;8.80;3.60;;;;;;;20.97;38.42;99073.20;104927;1274;73560;-68
2022/04/24 06:35:29;;;;;;;11.80;3.90;;;;;;;22.13;34.94;99070.11;106458;1273;60013;-67
2022/04/24 06:38:17;;;;;;;9.30;3.50;;;;;;;23.18;34.04;99073.55;104982;1274;59563;-67
2022/04/24 06:41:04;;;;;;;9.10;3.30;;;;;;;23.94;32.15;99069.16;104979;1274;74651;-67
2022/04/24 06:43:52;;;;;;;10.50;4.00;;;;;;;23.79;32.02;99074.05;105676;1274;67514;-70
2022/04/24 06:46:40;;;;;;;10.30;4.50;;;;;;;23.60;31.40;99078.58;105208;1273;71696;-69
2022/04/24 06:49:28;;;;;;;7.80;2.80;;;;;;;23.48;30.96;99081.89;104775;1274;59694;-69
2022/04/24 06:52:16;;;;;;;9.70;3.40;;;;;;;23.89;30.27;99082.11;104982;1274;59755;-69
2022/04/24 06:55:06;;;;;;;12.10;4.20;;;;;;;24.11;30.15;99077.54;105279;1274;72998;-71
2022/04/24 06:57:54;;;;;;;9.60;3.40;;;;;;;24.39;29.54;99078.24;105214;1274;68280;-69
2022/04/24 07:00:45;;;;;;;10.40;3.10;;;;;;;25.09;28.64;99075.88;104854;1275;72826;-70
2022/04/24 07:03:53;;;;;;;8.90;3.10;;;;;;;25.55;27.45;99077.89;105037;1273;59768;-69
2022/04/24 07:06:43;;;;;;;8.20;3.10;;;;;;;25.70;26.76;99077.31;105382;1274;59620;-69
2022/04/24 07:09:31;;;;;;;11.60;3.40;;;;;;;25.67;26.80;99077.38;105156;1274;72537;-68
2022/04/24 07:12:18;;;;;;;10.80;3.50;;;;;;;25.48;27.12;99071.50;104656;1274;68507;-68
2022/04/24 07:15:07;;;;;;;10.50;3.70;;;;;;;25.72;27.20;99069.08;104634;1274;73696;-71
2022/04/24 07:17:56;;;;;;;9.60;3.40;;;;;;;25.95;26.85;99061.34;104817;1274;61053;-72
2022/04/24 07:20:44;;;;;;;10.70;3.30;;;;;;;26.42;26.45;99062.16;104942;1274;59626;-69
2022/04/24 07:23:32;;;;;;;9.00;3.10;;;;;;;26.72;25.71;99067.07;104855;1273;74877;-70
2022/04/24 07:26:20;;;;;;;8.90;2.80;;;;;;;26.86;25.55;99067.27;105166;1273;68366;-71
2022/04/24 07:29:08;;;;;;;10.00;3.90;;;;;;;27.09;25.56;99063.73;104852;1273;74403;-69
2022/04/24 07:31:57;;;;;;;9.90;3.10;;;;;;;27.30;24.90;99067.13;105024;1273;59676;-68
2022/04/24 07:34:45;;;;;;;11.60;3.40;;;;;;;27.30;24.78;99064.73;105197;1273;62274;-67
2022/04/24 07:37:33;;;;;;;10.10;3.60;;;;;;;27.38;24.92;99062.71;105276;1273;73336;-68
2022/04/24 07:40:24;;;;;;;11.80;3.40;;;;;;;27.33;24.84;99064.53;104884;1273;68671;-69
2022/04/24 07:43:13;;;;;;;10.80;3.40;;;;;;;27.08;24.79;99061.27;104753;1273;74279;-71
2022/04/24 07:46:01;;;;;;;8.90;3.10;;;;;;;27.10;25.34;99059.76;104782;1274;59657;-73
2022/04/24 07:48:50;;;;;;;11.20;3.60;;;;;;;27.21;25.31;99059.13;105007;1274;60423;-69
2022/04/24 07:51:37;;;;;;;9.30;2.80;;;;;;;27.22;24.47;99061.05;104860;1274;72752;-68
2022/04/24 07:54:25;;;;;;;8.70;3.20;;;;;;;27.18;24.50;99057.95;105005;1274;67792;-69
2022/04/24 07:57:14;;;;;;;9.20;2.90;;;;;;;27.26;24.42;99056.25;104758;1274;73016;-68
2022/04/24 08:00:03;;;;;;;8.40;2.70;;;;;;;27.15;24.08;99055.34;104685;1274;59777;-70
2022/04/24 08:03:05;;;;;;;6.70;2.40;;;;;;;27.21;24.07;99055.80;104867;1274;60035;-71
2022/04/24 08:05:53;;;;;;;7.00;2.50;;;;;;;27.39;24.00;99054.23;104946;1274;71239;-69
2022/04/24 08:08:41;;;;;;;7.40;2.70;;;;;;;27.53;23.30;99059.07;104843;1273;68714;-69
2022/04/24 08:11:29;;;;;;;7.20;2.20;;;;;;;27.79;23.15;99061.98;104668;1273;72612;-69
2022/04/24 08:14:19;;;;;;;7.40;2.40;;;;;;;27.83;22.88;99062.35;105039;1273;59757;-72
2022/04/24 08:17:07;;;;;;;10.70;2.40;;;;;;;27.72;22.93;99062.66;104878;1273;60518;-75
2022/04/24 08:19:55;;;;;;;8.90;2.70;;;;;;;27.54;22.92;99062.23;105253;1274;73318;-70
2022/04/24 08:22:45;;;;;;;9.80;2.70;;;;;;;27.48;22.93;99065.51;104853;1274;67906;-68
2022/04/24 08:25:35;;;;;;;7.70;2.70;;;;;;;27.47;23.26;99063.80;104735;1273;74270;-70
2022/04/24 08:28:25;;;;;;;7.90;2.70;;;;;;;27.47;23.26;99060.24;104702;1274;59711;-69
2022/04/24 08:31:13;;;;;;;8.40;2.50;;;;;;;27.38;23.17;99064.84;105092;1274;61698;-68
2022/04/24 08:34:01;;;;;;;9.70;2.80;;;;;;;27.40;23.33;99063.44;104716;1274;73579;-70
2022/04/24 08:36:49;;;;;;;10.20;3.00;;;;;;;27.48;23.46;99067.47;104740;1273;69588;-70
2022/04/24 08:39:37;;;;;;;11.10;2.90;;;;;;;27.56;23.11;99064.18;105298;1273;74380;-69
2022/04/24 08:42:28;;;;;;;8.80;2.60;;;;;;;27.53;23.12;99068.94;104852;1273;59696;-68
2022/04/24 08:45:16;;;;;;;8.50;2.80;;;;;;;27.36;23.19;99074.96;104822;1273;61408;-70
2022/04/24 08:48:05;;;;;;;6.90;2.40;;;;;;;27.24;23.35;99074.13;105050;1274;73689;-72
2022/04/24 08:50:55;;;;;;;7.90;2.80;;;;;;;27.21;23.66;99077.26;104927;1274;68901;-70
2022/04/24 08:53:44;;;;;;;7.70;3.30;;;;;;;27.16;23.75;99077.69;104768;1274;72458;-70
2022/04/24 08:56:31;;;;;;;8.00;2.40;;;;;;;27.25;23.53;99079.06;105054;1274;59734;-70
2022/04/24 08:59:19;;;;;;;7.80;2.90;;;;;;;27.31;23.49;99079.75;104742;1273;61434;-69
2022/04/24 09:02:09;;;;;;;7.60;2.70;;;;;;;27.47;23.45;99082.65;104986;1274;72769;-71
2022/04/24 09:04:59;;;;;;;9.10;2.60;;;;;;;27.49;23.55;99086.61;105296;1273;68024;-71
2022/04/24 09:08:04;;;;;;;8.60;2.60;;;;;;;27.78;23.15;99088.14;105460;1274;307877;-69
2022/04/24 09:11:13;;;;;;;9.00;3.00;;;;;;;28.05;22.74;99093.59;104928;1272;59982;-68
2022/04/24 09:14:15;;;;;;;10.50;2.70;;;;;;;28.18;22.18;99084.19;105043;1274;61129;-69
2022/04/24 09:17:27;;;;;;;10.90;3.00;;;;;;;27.80;22.42;99090.12;104667;1274;73452;-69
2022/04/24 09:20:19;;;;;;;8.10;2.80;;;;;;;27.43;23.05;99090.69;104921;1273;69096;-71
2022/04/24 09:23:06;;;;;;;9.70;2.50;;;;;;;27.46;23.31;99093.23;105088;1273;71290;-70
2022/04/24 09:25:54;;;;;;;9.30;3.10;;;;;;;27.30;23.17;99094.59;104776;1273;59954;-70
2022/04/24 09:28:43;;;;;;;8.00;2.90;;;;;;;27.27;23.44;99094.88;105140;1274;60804;-70
2022/04/24 09:31:31;;;;;;;9.80;2.80;;;;;;;27.33;23.49;99096.01;104980;1274;73802;-71
2022/04/24 09:34:21;;;;;;;8.00;2.70;;;;;;;27.59;23.27;99094.49;104681;1274;68819;-69
2022/04/24 09:37:09;;;;;;;8.40;2.80;;;;;;;27.57;23.65;99091.98;104629;1274;71596;-68
2022/04/24 09:39:57;;;;;;;8.50;3.30;;;;;;;27.56;23.59;99095.37;104702;1273;60000;-67
2022/04/24 09:42:55;;;;;;;9.90;3.20;;;;;;;27.69;23.00;99091.71;104696;1273;59714;-68
2022/04/24 09:45:53;;;;;;;9.60;3.20;;;;;;;27.76;22.74;99093.53;104801;1272;74001;-67
2022/04/24 09:48:57;;;;;;;9.80;2.90;;;;;;;27.67;22.97;99093.65;104814;1274;66740;-69
2022/04/24 09:51:46;;;;;;;7.80;3.00;;;;;;;27.50;22.75;99094.22;104936;1274;71427;-70
2022/04/24 09:54:34;;;;;;;8.30;2.90;;;;;;;27.35;22.69;99097.45;104745;1274;59769;-70
2022/04/24 09:57:24;;;;;;;11.00;2.80;;;;;;;27.30;22.57;99103.05;104616;1273;60227;-70
2022/04/24 10:00:12;;;;;;;9.30;3.00;;;;;;;27.32;22.73;99098.93;104653;1273;72221;-72
2022/04/24 10:03:04;;;;;;;9.50;3.30;;;;;;;27.19;22.77;99095.59;104524;1273;69649;-71
2022/04/24 10:05:53;;;;;;;9.10;3.30;;;;;;;27.25;23.02;99097.85;104892;1273;73413;-67
2022/04/24 10:08:42;;;;;;;8.60;3.50;;;;;;;27.33;23.02;99090.32;104960;1273;59755;-72
2022/04/24 10:11:30;;;;;;;9.90;3.30;;;;;;;27.36;22.69;99085.55;104966;1273;59733;-69
2022/04/24 10:14:19;;;;;;;9.50;3.00;;;;;;;27.50;22.71;99093.55;104902;1273;72871;-68
2022/04/24 10:17:45;;;;;;;8.80;3.10;;;;;;;27.61;22.66;99095.98;104866;1273;68039;-69
2022/04/24 10:21:09;;;;;;;10.00;3.30;;;;;;;27.44;23.00;99094.80;104667;1273;72642;-69
2022/04/24 10:24:07;;;;;;;8.30;3.00;;;;;;;27.42;23.33;99094.00;104740;1273;59702;-73
2022/04/24 10:26:57;;;;;;;7.90;3.10;;;;;;;27.27;23.07;99092.37;104862;1273;61089;-72
2022/04/24 10:29:59;;;;;;;8.90;2.90;;;;;;;27.31;23.43;99091.38;104724;1273;73449;-71
2022/04/24 10:32:48;;;;;;;8.80;2.80;;;;;;;27.31;23.39;99087.17;104734;1273;68417;-74
2022/04/24 10:35:54;;;;;;;10.30;3.00;;;;;;;27.12;23.22;99080.80;104911;1273;71450;-70
2022/04/24 10:38:57;;;;;;;10.00;3.40;;;;;;;26.78;23.90;99078.73;104916;1273;59564;-72
2022/04/24 10:42:14;;;;;;;9.60;3.20;;;;;;;26.46;23.90;99085.35;105212;1273;59886;-71
2022/04/24 10:45:14;;;;;;;8.40;3.00;;;;;;;26.00;24.01;99089.94;104903;1273;74479;-69
2022/04/24 10:48:14;;;;;;;9.90;3.00;;;;;;;25.66;25.30;99094.75;105053;1273;69449;-71
2022/04/24 10:51:02;;;;;;;8.70;2.70;;;;;;;25.63;25.12;99100.48;104718;1273;74790;-72
2022/04/24 10:53:55;;;;;;;8.80;2.80;;;;;;;25.36;25.67;99100.17;105338;1273;59784;-70
2022/04/24 10:56:49;;;;;;;10.90;3.30;;;;;;;25.28;25.94;99103.17;105101;1273;60681;-71
2022/04/24 10:59:55;;;;;;;8.60;3.10;;;;;;;24.95;26.11;99106.35;104906;1273;73226;-70
2022/04/24 11:02:43;;;;;;;8.50;3.20;;;;;;;24.66;26.58;99109.59;105040;1273;67202;-71
2022/04/24 11:05:37;;;;;;;10.50;3.40;;;;;;;24.37;26.74;99103.42;105028;1274;73525;-69
2022/04/24 11:08:26;;;;;;;8.70;3.00;;;;;;;24.41;26.96;99104.89;105344;1272;59682;-69
2022/04/24 11:11:14;;;;;;;10.70;3.20;;;;;;;24.58;27.10;99100.96;105088;1274;59801;-69
2022/04/24 11:14:03;;;;;;;10.30;3.40;;;;;;;24.83;26.57;99103.31;104759;1274;72094;-72
2022/04/24 11:16:56;;;;;;;11.70;3.30;;;;;;;24.86;26.31;99109.09;104570;1274;69407;-70
2022/04/24 11:19:45;;;;;;;8.40;3.40;;;;;;;24.40;26.55;99109.48;105258;1273;72894;-70
2022/04/24 11:22:33;;;;;;;10.90;3.10;;;;;;;23.92;27.30;99111.04;105143;1274;59870;-71
2022/04/24 11:25:24;;;;;;;8.50;3.30;;;;;;;23.54;27.97;99112.63;105119;1274;60541;-69
2022/04/24 11:28:15;;;;;;;8.60;3.00;;;;;;;23.06;28.44;99109.50;105468;1274;71754;-70
2022/04/24 11:31:19;;;;;;;9.40;2.80;;;;;;;22.51;29.38;99117.94;104946;1272;67906;-70
2022/04/24 11:34:07;;;;;;;8.50;3.00;;;;;;;22.10;30.03;99119.64;104812;1274;74251;-70
2022/04/24 11:36:58;;;;;;;9.70;3.30;;;;;;;21.81;30.84;99122.44;104733;1274;59650;-68
2022/04/24 11:39:46;;;;;;;10.90;4.50;;;;;;;21.43;31.44;99119.60;105035;1272;59650;-69
2022/04/24 11:42:34;;;;;;;11.90;3.90;;;;;;;20.95;31.83;99120.12;104681;1274;75169;-67
2022/04/24 11:51:45;;;;;;;8.50;3.20;;;;;;;19.10;35.37;99138.10;104693;1273;59658;-70
2022/04/24 11:54:33;;;;;;;9.40;3.40;;;;;;;18.74;35.82;99141.54;104970;1274;60944;-72
2022/04/24 11:57:21;;;;;;;9.00;3.70;;;;;;;18.13;37.01;99142.83;105020;1274;73004;-71
2022/04/24 12:00:18;;;;;;;9.90;3.80;;;;;;;17.44;38.46;99150.11;104850;1274;68387;-68
2022/04/24 12:03:06;;;;;;;10.10;3.40;;;;;;;16.71;39.88;99150.38;104838;1274;71754;-69
2022/04/24 12:06:16;;;;;;;8.80;3.90;;;;;;;16.22;41.53;99150.51;104877;1273;59902;-72
2022/04/24 12:09:08;;;;;;;9.50;3.80;;;;;;;15.67;43.21;99156.45;105332;1273;59617;-70
2022/04/24 12:12:14;;;;;;;10.40;4.00;;;;;;;15.19;44.12;99163.35;105102;1274;73107;-72
2022/04/24 12:15:12;;;;;;;12.70;4.60;;;;;;;14.83;45.41;99165.23;104884;1273;67050;-69
2022/04/24 12:18:01;;;;;;;9.30;3.80;;;;;;;14.44;46.19;99161.94;104650;1274;73236;-67
2022/04/24 12:20:52;;;;;;;10.20;3.80;;;;;;;13.99;47.68;99163.98;104732;1271;59832;-69
2022/04/24 12:23:50;;;;;;;11.20;4.00;;;;;;;13.72;48.32;99168.80;104612;1273;59659;-71
2022/04/24 12:26:52;;;;;;;9.30;3.50;;;;;;;13.50;49.37;99173.77;104755;1273;73271;-68
2022/04/24 12:29:48;;;;;;;13.80;4.10;;;;;;;13.33;49.59;99177.30;104737;1273;65922;-68
2022/04/24 12:32:38;;;;;;;10.80;4.50;;;;;;;13.16;50.10;99179.10;104606;1274;73408;-69
2022/04/24 12:35:35;;;;;;;11.30;4.20;;;;;;;13.02;50.39;99178.84;104743;1273;59730;-67
2022/04/24 12:38:23;;;;;;;9.30;3.80;;;;;;;12.86;51.05;99177.81;105053;1273;60898;-67
2022/04/24 12:41:16;;;;;;;10.90;3.90;;;;;;;12.66;51.43;99178.07;105045;1273;73865;-68
2022/04/24 12:44:06;;;;;;;11.20;4.20;;;;;;;12.42;52.20;99177.50;104673;1273;69903;-70
2022/04/24 12:46:54;;;;;;;10.80;4.00;;;;;;;12.26;52.71;99169.35;104604;1274;1002965;-69
2022/04/24 12:49:44;;;;;;;9.00;4.00;;;;;;;12.24;52.95;99175.90;104951;1274;60178;-68
2022/04/24 12:52:32;;;;;;;9.10;4.30;;;;;;;12.22;53.16;99174.85;104704;1274;60528;-66
2022/04/24 12:55:21;;;;;;;11.00;3.70;;;;;;;12.19;53.01;99174.11;105351;1273;73648;-70
2022/04/24 12:58:14;;;;;;;9.90;4.00;;;;;;;12.14;53.46;99172.26;105043;1273;66375;-68
2022/04/24 13:01:02;;;;;;;10.30;3.90;;;;;;;12.04;53.35;99170.23;104669;1274;71480;-69
2022/04/24 13:03:54;;;;;;;9.80;3.70;;;;;;;11.99;54.22;99172.52;104709;1274;59746;-69
2022/04/24 13:06:43;;;;;;;8.20;3.50;;;;;;;11.90;54.24;99175.17;104941;1273;61860;-67
2022/04/24 13:09:31;;;;;;;10.50;3.70;;;;;;;11.69;54.35;99176.64;104677;1273;74701;-70
2022/04/24 13:12:21;;;;;;;11.40;3.40;;;;;;;11.56;55.17;99166.17;104343;1272;1003558;-70
2022/04/24 13:15:09;;;;;;;10.90;3.40;;;;;;;11.46;55.53;99174.75;105002;1273;72654;-68